Time;durP1;ratioP1;P1;durP2;ratioP2;P2;SDS_P1;SDS_P2;PMS_P1;PMS_P2;Temp;Humidity;BMP_temperature;BMP_pressure;BME280_temperature;BME280_humidity;BME280_pressure;Samples;Min_cycle;Max_cycle;Signal;HPM_P1;HPM_P2
2022/01/31 00:01:31;;;;;;;11.75;4.05;;;;;;;;;;5014062;28;20104;-70
2022/01/31 00:03:57;;;;;;;18.15;6.43;;;;;;;;;;5014218;28;20594;-68
2022/01/31 00:06:24;;;;;;;13.90;5.43;;;;;;;;;;5013869;28;20026;-69
2022/01/31 00:08:52;;;;;;;15.85;5.90;;;;;;;;;;5012618;28;20125;-70
2022/01/31 00:11:18;;;;;;;13.25;5.45;;;;;;;;;;5013455;28;20046;-68
2022/01/31 00:13:57;;;;;;;18.38;6.05;;;;;;;;;;5013387;28;20060;-69
2022/01/31 00:16:25;;;;;;;12.18;4.72;;;;;;;;;;5013776;28;20065;-68
2022/01/31 00:18:51;;;;;;;15.70;4.88;;;;;;;;;;5013763;28;20022;-70
2022/01/31 00:21:18;;;;;;;18.88;4.72;;;;;;;;;;5013690;28;20113;-69
2022/01/31 00:23:44;;;;;;;15.68;4.28;;;;;;;;;;5013906;28;20455;-68
2022/01/31 00:26:10;;;;;;;15.10;5.45;;;;;;;;;;5013598;28;20040;-68
2022/01/31 00:28:37;;;;;;;14.95;4.63;;;;;;;;;;5012271;28;20036;-69
2022/01/31 00:31:03;;;;;;;13.80;4.65;;;;;;;;;;5013433;28;20032;-70
2022/01/31 00:33:29;;;;;;;16.33;4.40;;;;;;;;;;5013348;28;20462;-69
2022/01/31 00:35:55;;;;;;;11.27;4.50;;;;;;;;;;5013412;28;20209;-65
2022/01/31 00:38:21;;;;;;;10.90;4.53;;;;;;;;;;5013430;28;20033;-66
2022/01/31 00:40:48;;;;;;;17.10;7.85;;;;;;;;;;5013628;28;20029;-64
2022/01/31 00:43:16;;;;;;;16.20;5.25;;;;;;;;;;5013376;28;20033;-66
2022/01/31 00:46:10;;;;;;;11.18;3.80;;;;;;;;;;5012028;28;20033;-65
2022/01/31 00:48:33;;;;;;;10.45;4.22;;;;;;;;;;5012598;28;20387;-64
2022/01/31 00:51:00;;;;;;;12.60;4.10;;;;;;;;;;5013416;28;20080;-64
2022/01/31 00:53:26;;;;;;;13.50;4.88;;;;;;;;;;5012025;28;20112;-64
2022/01/31 00:55:52;;;;;;;11.55;5.60;;;;;;;;;;5013204;28;20064;-64
2022/01/31 00:58:19;;;;;;;11.90;4.07;;;;;;;;;;5011999;28;20021;-64
2022/01/31 01:00:45;;;;;;;11.55;3.95;;;;;;;;;;5013215;28;20462;-65
2022/01/31 01:03:11;;;;;;;10.32;3.70;;;;;;;;;;5013254;28;20032;-65
2022/01/31 01:05:37;;;;;;;12.48;4.15;;;;;;;;;;5012942;28;20429;-67
2022/01/31 01:08:04;;;;;;;10.55;3.90;;;;;;;;;;5013229;28;20026;-67
2022/01/31 01:10:30;;;;;;;8.48;3.20;;;;;;;;;;5012858;28;20071;-66
2022/01/31 01:12:56;;;;;;;9.93;2.92;;;;;;;;;;5013430;28;20040;-65
2022/01/31 01:15:23;;;;;;;9.65;3.15;;;;;;;;;;5011729;28;20037;-65
2022/01/31 01:17:49;;;;;;;8.15;3.10;;;;;;;;;;5013091;28;20060;-65
2022/01/31 01:20:15;;;;;;;10.35;3.88;;;;;;;;;;5013047;28;20390;-65
2022/01/31 01:22:42;;;;;;;9.02;3.92;;;;;;;;;;5013023;28;20018;-69
2022/01/31 01:25:09;;;;;;;14.15;4.47;;;;;;;;;;5013006;28;20075;-67
2022/01/31 01:27:35;;;;;;;8.15;3.15;;;;;;;;;;5012978;28;20122;-70
2022/01/31 01:30:03;;;;;;;8.45;2.92;;;;;;;;;;5011730;28;20049;-66
2022/01/31 01:32:33;;;;;;;9.38;3.17;;;;;;;;;;5012932;28;20022;-66
2022/01/31 01:35:03;;;;;;;9.57;3.38;;;;;;;;;;5011558;28;20078;-68
2022/01/31 01:37:30;;;;;;;13.40;4.22;;;;;;;;;;5012919;28;20463;-66
2022/01/31 01:39:56;;;;;;;16.17;4.40;;;;;;;;;;5012922;28;20053;-69
2022/01/31 01:42:22;;;;;;;11.63;3.80;;;;;;;;;;5011535;28;20028;-66
2022/01/31 01:44:50;;;;;;;9.60;3.20;;;;;;;;;;5013945;28;20124;-66
2022/01/31 01:47:18;;;;;;;10.73;2.90;;;;;;;;;;5015163;28;20060;-67
2022/01/31 01:49:44;;;;;;;9.48;2.92;;;;;;;;;;5016510;28;20061;-66
2022/01/31 01:52:11;;;;;;;12.98;4.28;;;;;;;;;;5016410;28;20425;-66
2022/01/31 01:54:37;;;;;;;8.95;4.03;;;;;;;;;;5016263;28;20029;-66
2022/01/31 01:57:04;;;;;;;10.18;4.05;;;;;;;;;;5016027;28;20061;-67
2022/01/31 01:59:35;;;;;;;8.40;3.83;;;;;;;;;;5014985;28;20459;-65
2022/01/31 02:02:05;;;;;;;17.77;4.10;;;;;;;;;;5014990;28;20022;-67
2022/01/31 02:04:32;;;;;;;13.88;4.55;;;;;;;;;;5016189;28;20053;-66
2022/01/31 02:06:58;;;;;;;18.92;5.10;;;;;;;;;;5014812;28;20018;-66
2022/01/31 02:09:28;;;;;;;12.68;4.90;;;;;;;;;;5014874;28;20060;-68
2022/01/31 02:11:55;;;;;;;10.75;4.35;;;;;;;;;;5027408;28;20123;-65
2022/01/31 02:14:24;;;;;;;17.83;6.22;;;;;;;;;;5035926;28;20033;-66
2022/01/31 02:16:51;;;;;;;12.35;5.05;;;;;;;;;;5035649;28;20033;-67
2022/01/31 02:19:18;;;;;;;17.40;5.85;;;;;;;;;;5034382;28;20025;-68
2022/01/31 02:21:45;;;;;;;19.60;5.32;;;;;;;;;;5035652;28;20032;-66
2022/01/31 02:24:13;;;;;;;14.65;5.72;;;;;;;;;;5035590;28;20462;-65
2022/01/31 02:26:39;;;;;;;13.80;5.93;;;;;;;;;;5034225;28;20104;-65
2022/01/31 02:29:08;;;;;;;17.35;4.65;;;;;;;;;;5035802;28;20033;-67
2022/01/31 02:31:35;;;;;;;15.55;5.72;;;;;;;;;;5035452;28;20030;-67
2022/01/31 02:34:01;;;;;;;14.80;4.45;;;;;;;;;;5035414;28;20111;-68
2022/01/31 02:36:27;;;;;;;12.73;4.32;;;;;;;;;;5033988;28;20502;-68
2022/01/31 02:38:54;;;;;;;22.60;6.47;;;;;;;;;;5035637;28;20029;-67
2022/01/31 02:41:20;;;;;;;15.05;5.78;;;;;;;;;;5033940;28;20022;-69
2022/01/31 02:43:49;;;;;;;17.10;5.38;;;;;;;;;;5033914;28;20032;-66
2022/01/31 02:46:16;;;;;;;14.30;4.68;;;;;;;;;;5034914;28;20377;-69
2022/01/31 02:48:42;;;;;;;16.67;6.18;;;;;;;;;;5035219;28;20022;-66
2022/01/31 02:51:10;;;;;;;17.45;6.78;;;;;;;;;;5033729;28;20033;-68
2022/01/31 02:53:41;;;;;;;15.98;4.90;;;;;;;;;;5035028;28;20026;-67
2022/01/31 02:56:07;;;;;;;13.20;4.40;;;;;;;;;;5034842;28;20064;-66
2022/01/31 02:58:34;;;;;;;10.30;3.70;;;;;;;;;;5034965;28;20029;-69
2022/01/31 03:01:00;;;;;;;14.13;4.10;;;;;;;;;;5034660;28;20481;-66
2022/01/31 03:03:27;;;;;;;13.27;4.47;;;;;;;;;;5033484;28;20112;-66
2022/01/31 03:05:53;;;;;;;14.30;4.65;;;;;;;;;;5035052;28;20136;-66
2022/01/31 03:08:19;;;;;;;14.35;4.03;;;;;;;;;;5033531;28;20410;-69
2022/01/31 03:10:55;;;;;;;11.98;4.25;;;;;;;;;;5033122;28;20144;-67
2022/01/31 03:13:21;;;;;;;10.48;3.13;;;;;;;;;;5034973;28;20056;-66
2022/01/31 03:15:49;;;;;;;23.15;4.13;;;;;;;;;;5034574;28;20037;-69
2022/01/31 03:18:16;;;;;;;9.63;2.83;;;;;;;;;;5034619;28;20030;-66
2022/01/31 03:20:42;;;;;;;12.27;3.40;;;;;;;;;;5034587;28;20030;-66
2022/01/31 03:23:08;;;;;;;12.10;3.92;;;;;;;;;;5034472;28;20174;-68
2022/01/31 03:25:34;;;;;;;13.07;4.18;;;;;;;;;;5034482;28;20030;-69
2022/01/31 03:28:01;;;;;;;26.00;7.25;;;;;;;;;;5033041;28;20474;-66
2022/01/31 03:30:27;;;;;;;21.52;5.97;;;;;;;;;;5034357;28;20025;-66
2022/01/31 03:32:53;;;;;;;19.50;5.95;;;;;;;;;;5034284;28;20021;-66
2022/01/31 03:35:19;;;;;;;16.45;5.50;;;;;;;;;;5034173;28;20120;-66
2022/01/31 03:37:46;;;;;;;16.50;5.05;;;;;;;;;;5034133;28;20021;-66
2022/01/31 03:40:12;;;;;;;16.65;4.03;;;;;;;;;;5034206;28;20133;-66
2022/01/31 03:42:39;;;;;;;9.77;4.32;;;;;;;;;;5034347;28;20029;-66
2022/01/31 03:45:06;;;;;;;10.57;3.33;;;;;;;;;;5032761;28;20037;-66
2022/01/31 03:47:33;;;;;;;11.45;3.53;;;;;;;;;;5034033;28;20034;-65
2022/01/31 03:49:59;;;;;;;10.63;3.90;;;;;;;;;;5034318;28;20052;-66
2022/01/31 03:52:25;;;;;;;16.63;5.40;;;;;;;;;;5033618;28;20041;-64
2022/01/31 03:54:55;;;;;;;18.13;6.10;;;;;;;;;;5033779;28;20083;-64
2022/01/31 03:57:21;;;;;;;19.88;5.82;;;;;;;;;;5033868;28;20021;-64
2022/01/31 03:59:47;;;;;;;17.05;5.32;;;;;;;;;;5033809;28;20100;-65
2022/01/31 04:02:13;;;;;;;13.52;4.47;;;;;;;;;;5033971;28;20112;-66
2022/01/31 04:04:40;;;;;;;38.58;9.32;;;;;;;;;;5032337;28;20424;-65
2022/01/31 04:07:06;;;;;;;22.35;8.13;;;;;;;;;;5031783;28;20079;-65
2022/01/31 04:09:32;;;;;;;29.80;8.38;;;;;;;;;;5033651;28;20022;-64
2022/01/31 04:11:59;;;;;;;23.10;6.53;;;;;;;;;;5032101;28;20059;-64
2022/01/31 04:14:27;;;;;;;22.65;7.85;;;;;;;;;;5033524;28;20116;-64
2022/01/31 04:16:55;;;;;;;21.35;7.20;;;;;;;;;;5032208;28;20041;-65
2022/01/31 04:19:22;;;;;;;25.98;8.23;;;;;;;;;;5032167;28;20500;-63
2022/01/31 04:21:48;;;;;;;28.98;8.65;;;;;;;;;;5033414;28;20108;-66
2022/01/31 04:24:21;;;;;;;22.25;9.00;;;;;;;;;;5032109;28;20711;-64
2022/01/31 04:26:57;;;;;;;26.48;9.32;;;;;;;;;;5033435;28;20059;-67
2022/01/31 04:29:24;;;;;;;31.98;11.15;;;;;;;;;;5033406;28;20017;-66
2022/01/31 04:31:51;;;;;;;65.80;20.48;;;;;;;;;;5033365;28;20057;-66
2022/01/31 04:34:18;;;;;;;59.28;21.45;;;;;;;;;;5033251;28;20025;-64
2022/01/31 04:36:45;;;;;;;60.10;21.35;;;;;;;;;;5031872;28;20037;-64
2022/01/31 04:39:16;;;;;;;57.60;21.05;;;;;;;;;;5033227;28;20052;-65
2022/01/31 04:41:42;;;;;;;;;;;;;;;;;;5032396;28;20025;-64
2022/01/31 04:44:10;;;;;;;67.57;23.35;;;;;;;;;;5031795;28;19905;-64
2022/01/31 04:46:36;;;;;;;65.10;21.98;;;;;;;;;;5033131;28;20025;-64
2022/01/31 04:49:02;;;;;;;78.18;24.63;;;;;;;;;;5033035;28;20355;-63
2022/01/31 04:51:28;;;;;;;55.00;19.45;;;;;;;;;;5033112;28;20029;-64
2022/01/31 04:53:55;;;;;;;58.67;17.38;;;;;;;;;;5033012;28;20492;-65
2022/01/31 04:56:21;;;;;;;54.00;16.65;;;;;;;;;;5031603;28;20120;-64
2022/01/31 04:58:47;;;;;;;56.40;17.88;;;;;;;;;;5031693;28;20029;-65
2022/01/31 05:01:14;;;;;;;43.08;14.27;;;;;;;;;;5032978;28;20029;-67
2022/01/31 05:03:41;;;;;;;17.00;7.80;;;;;;;;;;5032926;28;20021;-66
2022/01/31 05:06:08;;;;;;;18.42;6.65;;;;;;;;;;5032905;28;20033;-66
2022/01/31 05:08:36;;;;;;;44.40;14.25;;;;;;;;;;5032921;28;20036;-65
2022/01/31 05:11:05;;;;;;;24.55;8.07;;;;;;;;;;5032653;28;20045;-66
2022/01/31 05:13:32;;;;;;;112.70;32.67;;;;;;;;;;5031537;28;20034;-67
2022/01/31 05:15:59;;;;;;;79.50;25.38;;;;;;;;;;5031446;28;20041;-66
2022/01/31 05:18:25;;;;;;;90.47;29.85;;;;;;;;;;5033399;28;20439;-66
2022/01/31 05:20:51;;;;;;;112.32;36.92;;;;;;;;;;5036816;28;20084;-67
2022/01/31 05:23:17;;;;;;;135.65;37.60;;;;;;;;;;5035394;28;20124;-65
2022/01/31 05:25:44;;;;;;;90.45;27.55;;;;;;;;;;5035687;28;20731;-67
2022/01/31 05:28:10;;;;;;;75.78;26.05;;;;;;;;;;5035356;28;20378;-67
2022/01/31 05:30:37;;;;;;;81.97;26.95;;;;;;;;;;5036590;28;20096;-66
2022/01/31 05:33:03;;;;;;;72.75;25.05;;;;;;;;;;5035234;28;20489;-66
2022/01/31 05:35:29;;;;;;;69.38;23.02;;;;;;;;;;5036464;28;20164;-68
2022/01/31 05:37:56;;;;;;;69.40;23.77;;;;;;;;;;5036478;28;20107;-64
2022/01/31 05:40:22;;;;;;;74.78;23.48;;;;;;;;;;5036455;28;20057;-65
2022/01/31 05:42:48;;;;;;;63.97;22.67;;;;;;;;;;5036361;28;20075;-65
2022/01/31 05:45:14;;;;;;;76.07;25.15;;;;;;;;;;5036316;28;20076;-64
2022/01/31 05:47:41;;;;;;;102.57;34.42;;;;;;;;;;5036532;28;20025;-64
2022/01/31 05:50:07;;;;;;;82.90;23.55;;;;;;;;;;5035944;28;20386;-64
2022/01/31 05:52:33;;;;;;;46.17;14.48;;;;;;;;;;5034923;28;20048;-65
2022/01/31 05:55:00;;;;;;;43.97;12.57;;;;;;;;;;5036080;28;20026;-64
2022/01/31 05:57:27;;;;;;;48.13;12.48;;;;;;;;;;5036079;28;20474;-65
2022/01/31 05:59:53;;;;;;;39.22;12.57;;;;;;;;;;5035976;28;20459;-64
2022/01/31 06:02:19;;;;;;;55.65;14.95;;;;;;;;;;5035686;28;20030;-65
2022/01/31 06:04:45;;;;;;;31.10;9.07;;;;;;;;;;5035929;28;20224;-65
2022/01/31 06:07:12;;;;;;;28.85;9.32;;;;;;;;;;5034607;28;20497;-64
2022/01/31 06:09:38;;;;;;;26.55;9.50;;;;;;;;;;5036033;28;20435;-63
2022/01/31 06:12:05;;;;;;;33.95;13.07;;;;;;;;;;5035871;28;20469;-63
2022/01/31 06:14:32;;;;;;;45.50;14.85;;;;;;;;;;5034456;28;20080;-68
2022/01/31 06:16:58;;;;;;;179.05;72.03;;;;;;;;;;5035672;28;20099;-66
2022/01/31 06:19:25;;;;;;;124.72;53.65;;;;;;;;;;5035648;28;20100;-67
2022/01/31 06:21:51;;;;;;;139.52;55.20;;;;;;;;;;5035615;28;20474;-64
2022/01/31 06:24:18;;;;;;;174.88;66.38;;;;;;;;;;5034033;28;20037;-67
2022/01/31 06:26:44;;;;;;;173.68;63.72;;;;;;;;;;5035523;28;20052;-64
2022/01/31 06:29:10;;;;;;;160.32;62.20;;;;;;;;;;5031978;28;20501;-64
2022/01/31 06:31:36;;;;;;;159.55;64.10;;;;;;;;;;5035092;28;20401;-63
2022/01/31 06:34:03;;;;;;;166.73;65.32;;;;;;;;;;5034990;28;20033;-64
2022/01/31 06:36:29;;;;;;;162.80;66.95;;;;;;;;;;5034626;28;20796;-65
2022/01/31 06:38:56;;;;;;;187.13;74.35;;;;;;;;;;5033450;28;20033;-63
2022/01/31 06:41:23;;;;;;;204.25;83.88;;;;;;;;;;5034743;28;20044;-64
2022/01/31 06:43:50;;;;;;;213.38;89.93;;;;;;;;;;5033317;28;20026;-65
2022/01/31 06:46:16;;;;;;;216.20;93.95;;;;;;;;;;5033553;28;20037;-63
2022/01/31 06:48:42;;;;;;;234.93;104.88;;;;;;;;;;5035079;28;20136;-64
2022/01/31 06:51:09;;;;;;;192.52;85.40;;;;;;;;;;5029819;28;20025;-64
2022/01/31 06:53:35;;;;;;;178.20;76.32;;;;;;;;;;5024776;28;20033;-63
2022/01/31 06:56:02;;;;;;;169.93;71.57;;;;;;;;;;5034568;28;20029;-65
2022/01/31 06:58:28;;;;;;;131.50;54.25;;;;;;;;;;5034645;28;20458;-65
2022/01/31 07:00:54;;;;;;;91.45;35.03;;;;;;;;;;5033907;28;20425;-63
2022/01/31 07:03:21;;;;;;;172.88;67.53;;;;;;;;;;5032833;28;20029;-65
2022/01/31 07:05:48;;;;;;;191.95;77.00;;;;;;;;;;5033992;28;20025;-66
2022/01/31 07:08:15;;;;;;;177.90;73.55;;;;;;;;;;5034337;28;20451;-64
2022/01/31 07:10:41;;;;;;;167.98;70.25;;;;;;;;;;5034512;28;20041;-64
2022/01/31 07:13:22;;;;;;;152.25;63.80;;;;;;;;;;5034858;28;20092;-66
2022/01/31 07:15:48;;;;;;;140.60;58.00;;;;;;;;;;5033284;28;20466;-63
2022/01/31 07:18:15;;;;;;;152.20;62.67;;;;;;;;;;5034867;28;20488;-65
2022/01/31 07:20:43;;;;;;;164.98;72.82;;;;;;;;;;5033273;28;20167;-64
2022/01/31 07:23:26;;;;;;;154.60;69.65;;;;;;;;;;5034729;28;20032;-65
2022/01/31 07:25:52;;;;;;;162.63;69.95;;;;;;;;;;5033139;28;20017;-67
2022/01/31 07:28:19;;;;;;;172.02;75.40;;;;;;;;;;5032736;28;20116;-67
2022/01/31 07:30:50;;;;;;;175.40;72.50;;;;;;;;;;5034071;28;20017;-68
2022/01/31 07:33:16;;;;;;;195.57;81.72;;;;;;;;;;5034231;28;20496;-67
2022/01/31 07:35:43;;;;;;;228.73;93.10;;;;;;;;;;5032745;28;20368;-66
2022/01/31 07:38:10;;;;;;;238.40;99.90;;;;;;;;;;5033996;28;20064;-66
2022/01/31 07:40:37;;;;;;;222.65;93.00;;;;;;;;;;5032396;28;20025;-66
2022/01/31 07:43:03;;;;;;;182.05;79.30;;;;;;;;;;5033417;28;20375;-65
2022/01/31 07:45:30;;;;;;;187.40;84.93;;;;;;;;;;5033968;28;20120;-66
2022/01/31 07:47:56;;;;;;;203.10;92.20;;;;;;;;;;5033838;28;20390;-65
2022/01/31 07:50:22;;;;;;;217.80;91.70;;;;;;;;;;5034096;28;20101;-66
2022/01/31 07:52:49;;;;;;;171.93;69.97;;;;;;;;;;5044883;28;20029;-63
2022/01/31 07:55:15;;;;;;;162.35;70.35;;;;;;;;;;5014969;28;20060;-63
2022/01/31 07:57:43;;;;;;;175.75;74.03;;;;;;;;;;5011876;28;20028;-65
2022/01/31 08:00:10;;;;;;;174.50;71.57;;;;;;;;;;5013425;28;20021;-65
2022/01/31 08:02:36;;;;;;;136.18;58.63;;;;;;;;;;5013405;28;20041;-63
2022/01/31 08:05:02;;;;;;;131.18;54.60;;;;;;;;;;5013238;28;20394;-63
2022/01/31 08:07:28;;;;;;;104.88;45.30;;;;;;;;;;5013404;28;20368;-66
2022/01/31 08:09:55;;;;;;;119.68;43.83;;;;;;;;;;5012183;28;20086;-66
2022/01/31 08:12:23;;;;;;;55.70;20.30;;;;;;;;;;5013848;28;20479;-64
2022/01/31 08:14:49;;;;;;;35.78;14.65;;;;;;;;;;5013678;28;20041;-64
2022/01/31 08:17:16;;;;;;;41.53;12.73;;;;;;;;;;5013535;28;20060;-63
2022/01/31 08:19:42;;;;;;;39.13;14.52;;;;;;;;;;5011967;28;20034;-66
2022/01/31 08:22:09;;;;;;;43.83;15.10;;;;;;;;;;5013568;28;20026;-63
2022/01/31 08:24:35;;;;;;;43.75;14.80;;;;;;;;;;5013280;28;20160;-64
2022/01/31 08:27:01;;;;;;;48.28;19.63;;;;;;;;;;5013376;28;20109;-63
2022/01/31 08:29:35;;;;;;;56.47;21.90;;;;;;;;;;5011741;28;20026;-63
2022/01/31 08:32:06;;;;;;;57.53;21.75;;;;;;;;;;5012960;28;20025;-64
2022/01/31 08:37:17;;;;;;;39.78;18.45;;;;;;;;;;5013337;28;20045;-63
2022/01/31 08:39:43;;;;;;;48.40;19.50;;;;;;;;;;5011944;28;20120;-65
2022/01/31 08:42:10;;;;;;;46.35;17.65;;;;;;;;;;5012947;28;20060;-65
2022/01/31 08:44:36;;;;;;;56.17;18.88;;;;;;;;;;5012913;28;20030;-64
2022/01/31 08:47:03;;;;;;;42.50;17.15;;;;;;;;;;5013399;28;20124;-63
2022/01/31 08:49:33;;;;;;;40.88;15.18;;;;;;;;;;5012930;28;20061;-62
2022/01/31 08:51:59;;;;;;;33.60;13.02;;;;;;;;;;5011795;28;20029;-63
2022/01/31 08:54:25;;;;;;;29.48;9.98;;;;;;;;;;5012954;28;20049;-63
2022/01/31 08:56:51;;;;;;;27.80;10.98;;;;;;;;;;5013116;28;20037;-64
2022/01/31 08:59:22;;;;;;;34.30;11.73;;;;;;;;;;5013032;28;20029;-62
2022/01/31 09:02:05;;;;;;;39.42;13.68;;;;;;;;;;5013147;28;20037;-63
2022/01/31 09:04:47;;;;;;;33.53;9.02;;;;;;;;;;5013082;28;20026;-63
2022/01/31 09:07:13;;;;;;;22.38;7.50;;;;;;;;;;5011670;28;20066;-62
2022/01/31 09:09:40;;;;;;;14.00;5.72;;;;;;;;;;5012745;28;20026;-61
2022/01/31 09:12:08;;;;;;;20.25;8.02;;;;;;;;;;5012830;28;20099;-62
2022/01/31 09:14:35;;;;;;;29.45;9.13;;;;;;;;;;5013020;28;20094;-63
2022/01/31 09:17:01;;;;;;;22.58;8.23;;;;;;;;;;5012616;28;20030;-62
2022/01/31 09:19:28;;;;;;;22.15;8.43;;;;;;;;;;5011655;28;20033;-61
2022/01/31 09:21:54;;;;;;;30.83;9.38;;;;;;;;;;5011722;28;20026;-62
2022/01/31 09:24:20;;;;;;;21.52;8.77;;;;;;;;;;5012619;28;20026;-64
2022/01/31 09:26:47;;;;;;;37.15;11.48;;;;;;;;;;5012731;28;20085;-60
2022/01/31 09:29:13;;;;;;;60.65;15.00;;;;;;;;;;5011564;28;20379;-62
2022/01/31 09:31:40;;;;;;;32.72;11.48;;;;;;;;;;5012795;28;20481;-62
2022/01/31 09:34:06;;;;;;;37.20;10.35;;;;;;;;;;5012977;28;20034;-62
2022/01/31 09:36:33;;;;;;;26.65;9.30;;;;;;;;;;5012580;28;20088;-61
2022/01/31 09:38:59;;;;;;;34.58;10.32;;;;;;;;;;5016171;28;20520;-62
2022/01/31 09:41:29;;;;;;;26.95;10.93;;;;;;;;;;5032084;28;20025;-62
2022/01/31 09:44:12;;;;;;;31.23;12.02;;;;;;;;;;5031039;28;20449;-63
2022/01/31 09:49:15;;;;;;;20.92;8.55;;;;;;;;;;5032056;28;20117;-61
2022/01/31 09:51:41;;;;;;;29.80;10.82;;;;;;;;;;5032044;28;20409;-61
2022/01/31 09:54:08;;;;;;;37.90;11.93;;;;;;;;;;5030928;28;20041;-63
2022/01/31 09:56:37;;;;;;;37.28;11.63;;;;;;;;;;5032045;28;20029;-63
2022/01/31 09:59:04;;;;;;;31.67;11.18;;;;;;;;;;5030962;28;20056;-62
2022/01/31 10:01:34;;;;;;;24.52;7.63;;;;;;;;;;5032279;28;20025;-62
2022/01/31 10:04:20;;;;;;;24.93;8.43;;;;;;;;;;5032165;28;20421;-60
2022/01/31 10:06:51;;;;;;;27.58;9.60;;;;;;;;;;5034247;28;20091;-62
2022/01/31 10:09:21;;;;;;;31.23;9.25;;;;;;;;;;5034617;28;20076;-67
2022/01/31 10:11:57;;;;;;;35.45;9.93;;;;;;;;;;5035300;28;20079;-62
2022/01/31 10:17:11;;;;;;;36.25;13.13;;;;;;;;;;5035247;28;20099;-60
2022/01/31 10:19:41;;;;;;;35.13;10.23;;;;;;;;;;5035577;28;20032;-61
2022/01/31 10:22:08;;;;;;;32.80;8.93;;;;;;;;;;5032081;28;20032;-61
2022/01/31 10:24:36;;;;;;;26.90;8.93;;;;;;;;;;5034737;28;20486;-61
2022/01/31 10:27:13;;;;;;;23.27;7.72;;;;;;;;;;5035113;28;20080;-63
2022/01/31 10:29:40;;;;;;;29.40;10.25;;;;;;;;;;5033514;28;20103;-62
2022/01/31 10:32:08;;;;;;;25.45;9.85;;;;;;;;;;5034963;28;20036;-63
2022/01/31 10:34:39;;;;;;;30.20;9.77;;;;;;;;;;5034967;28;20367;-62
2022/01/31 10:37:07;;;;;;;23.52;7.43;;;;;;;;;;5035060;28;20041;-63
2022/01/31 10:53:07;;;;;;;58.72;21.35;;;;;;;;;;5034721;28;20034;-61
2022/01/31 10:55:33;;;;;;;27.75;10.43;;;;;;;;;;5034642;28;20426;-62
2022/01/31 10:58:06;;;;;;;23.88;6.50;;;;;;;;;;5034606;28;20108;-61
2022/01/31 11:00:36;;;;;;;22.08;6.88;;;;;;;;;;5033102;28;20458;-61
2022/01/31 11:03:21;;;;;;;22.83;8.05;;;;;;;;;;5034418;28;20057;-61
2022/01/31 11:05:50;;;;;;;22.77;8.45;;;;;;;;;;5032705;28;20025;-62
2022/01/31 11:08:17;;;;;;;20.00;7.70;;;;;;;;;;5033526;28;20064;-62
2022/01/31 11:10:44;;;;;;;22.13;7.82;;;;;;;;;;5033753;28;20587;-62
2022/01/31 11:13:10;;;;;;;22.30;7.60;;;;;;;;;;5032750;28;20138;-62
2022/01/31 11:15:39;;;;;;;28.02;8.93;;;;;;;;;;5033957;28;20045;-62
2022/01/31 11:18:06;;;;;;;23.63;9.07;;;;;;;;;;5033706;28;20026;-62
2022/01/31 11:20:33;;;;;;;27.10;9.80;;;;;;;;;;5034150;28;20108;-61
2022/01/31 11:22:59;;;;;;;19.88;7.40;;;;;;;;;;5034111;28;20025;-63
2022/01/31 11:25:26;;;;;;;23.65;8.70;;;;;;;;;;5033707;28;20030;-63
2022/01/31 11:27:54;;;;;;;33.05;10.00;;;;;;;;;;5033600;28;20036;-63
2022/01/31 11:30:22;;;;;;;32.20;9.52;;;;;;;;;;5032111;28;20125;-63
2022/01/31 11:32:48;;;;;;;21.63;8.32;;;;;;;;;;5033832;28;20022;-65
2022/01/31 11:35:15;;;;;;;30.48;11.05;;;;;;;;;;5032322;28;20060;-61
2022/01/31 11:37:41;;;;;;;26.23;11.35;;;;;;;;;;5033780;28;20026;-60
2022/01/31 11:40:09;;;;;;;21.25;7.38;;;;;;;;;;5033272;28;20025;-62
2022/01/31 11:42:36;;;;;;;21.38;8.00;;;;;;;;;;5033688;28;20026;-64
2022/01/31 11:45:28;;;;;;;25.45;9.82;;;;;;;;;;5033824;28;20108;-64
2022/01/31 11:47:56;;;;;;;24.35;7.25;;;;;;;;;;5028825;28;20064;-63
2022/01/31 11:50:23;;;;;;;22.88;7.47;;;;;;;;;;5033504;28;20052;-65
2022/01/31 11:52:51;;;;;;;24.60;7.97;;;;;;;;;;5032490;28;20022;-64
2022/01/31 11:55:19;;;;;;;20.77;6.07;;;;;;;;;;5032593;28;20036;-64
2022/01/31 11:57:47;;;;;;;33.20;10.32;;;;;;;;;;5032888;28;20049;-63
2022/01/31 12:00:14;;;;;;;30.27;11.70;;;;;;;;;;5032164;28;20022;-64
2022/01/31 12:02:41;;;;;;;26.48;9.88;;;;;;;;;;5031815;28;20036;-63
2022/01/31 12:05:09;;;;;;;24.48;10.43;;;;;;;;;;5031706;28;20032;-65
2022/01/31 12:07:40;;;;;;;30.48;12.52;;;;;;;;;;5031570;28;20061;-67
2022/01/31 12:10:21;;;;;;;27.27;9.38;;;;;;;;;;5031546;28;20359;-67
2022/01/31 12:12:58;;;;;;;25.67;9.73;;;;;;;;;;5032232;28;20485;-64
2022/01/31 12:23:38;;;;;;;33.13;12.25;;;;;;;;;;5012916;28;20402;-63
2022/01/31 12:26:24;;;;;;;38.22;13.80;;;;;;;;;;5013024;28;20095;-62
2022/01/31 12:28:54;;;;;;;49.83;14.88;;;;;;;;;;5015811;28;20158;-63
2022/01/31 12:31:24;;;;;;;30.88;11.55;;;;;;;;;;5013269;28;20057;-64
2022/01/31 12:33:51;;;;;;;21.75;8.95;;;;;;;;;;5013461;28;20030;-65
2022/01/31 12:36:37;;;;;;;27.83;7.90;;;;;;;;;;5011866;28;20038;-62
2022/01/31 12:45:12;;;;;;;28.10;8.15;;;;;;;;;;5149887;22;20492;-61
2022/01/31 12:47:59;;;;;;;22.95;7.78;;;;;;;;;;5030669;28;20029;-61
2022/01/31 12:50:26;;;;;;;23.90;7.80;;;;;;;;;;5031317;28;20148;-63
2022/01/31 12:52:53;;;;;;;38.28;12.45;;;;;;;;;;5032901;28;20095;-63
2022/01/31 12:55:21;;;;;;;24.35;6.25;;;;;;;;;;5032830;28;20037;-63
2022/01/31 12:57:52;;;;;;;28.60;7.38;;;;;;;;;;5031287;28;20109;-63
2022/01/31 13:00:41;;;;;;;18.17;5.57;;;;;;;;;;5032831;28;20113;-62
2022/01/31 13:03:08;;;;;;;19.05;6.78;;;;;;;;;;5032740;28;20022;-62
2022/01/31 13:05:38;;;;;;;22.88;7.43;;;;;;;;;;5031073;28;20030;-61
2022/01/31 13:08:23;;;;;;;18.10;7.95;;;;;;;;;;5032735;28;20029;-61
2022/01/31 13:10:53;;;;;;;31.40;7.47;;;;;;;;;;5032664;28;20033;-61
2022/01/31 13:13:34;;;;;;;21.50;7.28;;;;;;;;;;5022380;28;20021;-62
2022/01/31 13:16:08;;;;;;;23.73;8.05;;;;;;;;;;5022362;28;20470;-61
2022/01/31 13:18:34;;;;;;;35.00;11.32;;;;;;;;;;5021369;28;20022;-62
2022/01/31 13:21:03;;;;;;;24.08;8.07;;;;;;;;;;5019608;28;20025;-62
2022/01/31 13:23:29;;;;;;;20.42;7.03;;;;;;;;;;5029073;28;20018;-61
2022/01/31 13:26:00;;;;;;;30.65;8.82;;;;;;;;;;5031135;28;20053;-62
2022/01/31 13:28:26;;;;;;;26.48;8.30;;;;;;;;;;5032427;28;20096;-62
2022/01/31 13:30:52;;;;;;;30.98;10.48;;;;;;;;;;5032592;28;20108;-62
2022/01/31 13:33:19;;;;;;;30.27;10.00;;;;;;;;;;5032417;28;20021;-62
2022/01/31 13:35:47;;;;;;;23.58;8.15;;;;;;;;;;5017246;28;20037;-63
2022/01/31 13:38:20;;;;;;;26.92;10.15;;;;;;;;;;5012771;28;20014;-62
2022/01/31 13:40:49;;;;;;;24.73;9.13;;;;;;;;;;5015280;28;20462;-62
2022/01/31 13:43:22;;;;;;;24.52;7.38;;;;;;;;;;5015171;28;20490;-62
2022/01/31 13:45:58;;;;;;;26.95;7.63;;;;;;;;;;5015954;28;20050;-63
2022/01/31 13:51:24;;;;;;;34.28;11.43;;;;;;;;;;5016373;28;20485;-64
2022/01/31 13:53:51;;;;;;;36.90;11.55;;;;;;;;;;5016517;28;20030;-61
2022/01/31 13:56:17;;;;;;;26.08;9.70;;;;;;;;;;5014885;28;20034;-62
2022/01/31 13:58:44;;;;;;;32.30;10.98;;;;;;;;;;5016543;28;20076;-62
2022/01/31 14:01:20;;;;;;;30.83;9.18;;;;;;;;;;5016277;28;20026;-62
2022/01/31 14:03:46;;;;;;;36.10;12.30;;;;;;;;;;5016124;28;20466;-63
2022/01/31 14:06:14;;;;;;;41.90;12.70;;;;;;;;;;5014828;28;20120;-62
2022/01/31 14:08:41;;;;;;;32.97;10.80;;;;;;;;;;5015840;28;20504;-63
2022/01/31 14:11:17;;;;;;;46.35;18.30;;;;;;;;;;5016063;28;20026;-65
2022/01/31 14:13:46;;;;;;;53.20;16.92;;;;;;;;;;5016013;28;20018;-64
2022/01/31 14:16:14;;;;;;;51.85;17.88;;;;;;;;;;5014656;28;20092;-62
2022/01/31 14:18:43;;;;;;;61.53;20.45;;;;;;;;;;5015976;28;20021;-61
2022/01/31 14:21:09;;;;;;;62.25;20.77;;;;;;;;;;5015939;28;20581;-62
2022/01/31 14:23:36;;;;;;;52.22;18.05;;;;;;;;;;5019319;28;20104;-63
2022/01/31 14:26:03;;;;;;;58.88;15.18;;;;;;;;;;5034398;28;20042;-64
2022/01/31 14:28:46;;;;;;;45.22;16.45;;;;;;;;;;5034565;28;20064;-62
2022/01/31 14:31:16;;;;;;;51.00;16.33;;;;;;;;;;5034824;28;20021;-64
2022/01/31 14:33:47;;;;;;;34.25;10.88;;;;;;;;;;5034722;28;20529;-64
2022/01/31 14:36:15;;;;;;;27.00;10.20;;;;;;;;;;5034931;28;20040;-63
2022/01/31 14:39:28;;;;;;;27.77;11.02;;;;;;;;;;5035124;28;20034;-63
2022/01/31 14:42:42;;;;;;;31.60;12.75;;;;;;;;;;5034053;28;20365;-63
2022/01/31 14:47:50;;;;;;;30.70;11.73;;;;;;;;;;5034843;28;20114;-64
2022/01/31 14:50:17;;;;;;;35.85;14.82;;;;;;;;;;5032751;28;20021;-65
2022/01/31 14:52:48;;;;;;;71.35;31.83;;;;;;;;;;5034324;28;20030;-70
2022/01/31 14:55:18;;;;;;;102.93;48.17;;;;;;;;;;5035171;28;20069;-64
2022/01/31 14:57:45;;;;;;;82.20;38.30;;;;;;;;;;5035034;28;20022;-65
2022/01/31 15:00:13;;;;;;;89.30;42.80;;;;;;;;;;5034865;28;20100;-64
2022/01/31 15:02:40;;;;;;;69.45;28.30;;;;;;;;;;5033224;28;20350;-65
2022/01/31 15:05:07;;;;;;;66.13;30.65;;;;;;;;;;5034711;28;20028;-66
2022/01/31 15:07:34;;;;;;;65.60;30.45;;;;;;;;;;5032426;28;20041;-67
2022/01/31 15:10:00;;;;;;;47.67;21.67;;;;;;;;;;5032952;28;20033;-67
2022/01/31 15:12:26;;;;;;;47.20;22.40;;;;;;;;;;5033279;28;20117;-63